• Join FlightAware (Why Join?)
  • Login
  • US Flag 
10:25AM EDT


 

Airport Tracker/Info


-or-


 

Live Flight TrackerFlight Track Log ✈ BJS542 ✈ 27-Jun-2013 ✈ KGUC - KDAL

Flight Track Log - Related Links

Times and Time Zones

All times are in EDT time to prevent confusion due to time zone crossing. See the BJS542 flight status page for this flight to view local times or setup timezone preferences in your user account.

Time Position Orientation Groundspeed Altitude Reporting Facility
EDT Latitude Longitude Course Direction KTS MPH feet Rate Location/Type
11:30AM 38.3922 -106.6900 122° Southeast 365 420 15,600  Level Denver Center
11:31AM 38.2997 -106.6122 147° Southeast 396 456 15,600 1,200 Level Denver Center
11:32AM 38.2064 -106.5325 146° Southeast 400 460 18,100 2,400 Climbing Denver Center
11:34AM 38.1757 -106.2013 122° Southeast  Level Estimated
11:34AM 38.1156 -106.4564 147° Southeast 395 455 20,700  Level Denver Center
11:35AM 38.1155 -106.0800 122° Southeast  Level Estimated
11:35AM 38.0089 -106.3664 146° Southeast 404 465 23,900  Level Denver Center
11:36AM 38.0552 -105.9589 122° Southeast  Level Estimated
11:36AM 37.9161 -106.2886 147° Southeast 414 476 26,300  Level Denver Center
11:37AM 37.8064 -106.1956 146° Southeast 424 488 28,900 2,040 Climbing Denver Center
11:38AM 37.6997 -106.1061 146° Southeast 444 511 30,600 1,620 Climbing Denver Center
11:39AM 37.5964 -106.0206 147° Southeast 460 529 32,300 1,380 Climbing Denver Center
11:40AM 37.4775 -105.9219 147° Southeast 483 556 33,500 1,260 Climbing Denver Center
11:41AM 37.3700 -105.8283 145° Southeast 491 565 35,000 960 Climbing Denver Center
11:42AM 37.2828 -105.6789 126° Southeast 475 547 35,600 960 Climbing Denver Center
11:43AM 37.2161 -105.5389 121° Southeast 465 535 37,000 1,620 Climbing Denver Center
11:44AM 37.1408 -105.3847 121° Southeast 465 535 39,000 1,920 Climbing Denver Center
11:45AM 37.0769 -105.2575 122° Southeast 456 525 41,000 1,440 Climbing Denver Center
11:46AM 37.0044 -105.1083 121° Southeast 451 519 42,000 1,260 Climbing Denver Center
11:47AM 36.9406 -104.9806 122° Southeast 441 507 43,700 1,200 Climbing Denver Center
11:48AM 36.8794 -104.8544 121° Southeast 428 493 44,500 600 Climbing Denver Center
11:49AM 36.8133 -104.7236 122° Southeast 432 497 45,000 240 Climbing Denver Center
11:50AM 36.7508 -104.5992 122° Southeast 440 506 45,000  Level Denver Center
11:51AM 36.6764 -104.4503 122° Southeast 451 519 45,000  Level Denver Center
11:52AM 36.6114 -104.3214 122° Southeast 458 527 45,000  Level Denver Center
11:53AM 36.5467 -104.1692 118° Southeast 450 518 45,000  Level Denver Center
11:54AM 36.4786 -104.0072 118° Southeast 446 513 45,000  Level Albuquerque Center
11:55AM 36.4214 -103.8703 117° Southeast 444 511 45,000  Level Albuquerque Center
11:56AM 36.3636 -103.7347 118° Southeast 441 507 45,000  Level Albuquerque Center
11:58AM 36.2975 -103.5775 118° Southeast 438 504 45,000  Level Albuquerque Center
11:59AM 36.2397 -103.4408 118° Southeast 440 506 45,000  Level Albuquerque Center
12:00PM 36.1819 -103.3064 118° Southeast 440 506 45,000  Level Albuquerque Center
12:01PM 36.1236 -103.1694 118° Southeast 443 510 45,000  Level Albuquerque Center
12:02PM 36.0653 -103.0336 118° Southeast 442 509 45,000  Level Albuquerque Center
12:03PM 36.0017 -102.8886 118° Southeast 446 513 45,000  Level Albuquerque Center
12:04PM 35.9442 -102.7544 118° Southeast 445 512 45,000  Level Albuquerque Center
12:05PM 35.8861 -102.6197 118° Southeast 445 512 45,000  Level Albuquerque Center
12:06PM 35.8269 -102.4858 119° Southeast 446 513 45,000  Level Albuquerque Center
12:07PM 35.7686 -102.3531 118° Southeast 443 510 45,000  Level Albuquerque Center
12:08PM 35.6969 -102.1931 119° Southeast 443 510 45,000  Level Albuquerque Center
12:09PM 35.6381 -102.0608 119° Southeast 441 507 45,000  Level Albuquerque Center
12:10PM 35.5794 -101.9281 118° Southeast 442 509 45,000  Level Albuquerque Center
12:11PM 35.5172 -101.7869 118° Southeast 440 506 45,000  Level Albuquerque Center
12:12PM 35.4639 -101.6631 118° Southeast 440 506 45,000  Level Albuquerque Center
12:13PM 35.3989 -101.5231 120° Southeast 441 507 45,000  Level Albuquerque Center
12:14PM 35.3389 -101.3931 119° Southeast 440 506 45,000  Level Albuquerque Center
12:15PM 35.2794 -101.2619 119° Southeast 444 511 45,000  Level Albuquerque Center
12:16PM 35.2075 -101.1047 119° Southeast 441 507 45,000  Level Albuquerque Center
12:17PM 35.1472 -100.9733 119° Southeast 444 511 45,000  Level Albuquerque Center
12:18PM 35.0867 -100.8417 119° Southeast 443 510 45,000  Level Albuquerque Center
12:19PM 35.0264 -100.7111 119° Southeast 442 509 45,000  Level Albuquerque Center
12:20PM 34.9653 -100.5808 120° Southeast 443 510 45,000  Level Albuquerque Center
12:21PM 34.9031 -100.4489 120° Southeast 446 513 45,000  Level Albuquerque Center
12:22PM 34.8403 -100.3161 120° Southeast 449 517 45,000  Level Albuquerque Center
12:23PM 34.7669 -100.1586 120° Southeast 447 514 45,000  Level Albuquerque Center
12:24PM 34.7050 -100.0267 120° Southeast 448 516 45,000 -600 Level Albuquerque Center
12:25PM 34.6431 -99.8969 120° Southeast 446 513 43,800 -1,260 Descending Albuquerque Center
12:26PM 34.5806 -99.7633 120° Southeast 452 520 42,400 -1,500 Descending Albuquerque Center
12:28PM 34.5067 -99.6111 120° Southeast 439 505 40,500 -1,620 Descending Fort Worth Center
12:29PM 34.4483 -99.4861 119° Southeast 429 494 39,000 -1,500 Descending Fort Worth Center
12:30PM 34.3875 -99.3664 122° Southeast 429 494 37,500 -1,500 Descending Fort Worth Center
12:31PM 34.3228 -99.2292 120° Southeast 435 501 36,000 -1,500 Descending Fort Worth Center
12:32PM 34.2578 -99.1019 122° Southeast 441 507 34,500 -1,680 Descending Fort Worth Center
12:33PM 34.1928 -98.9703 121° Southeast 436 502 32,700 -1,920 Descending Fort Worth Center
12:34PM 34.1278 -98.8311 119° Southeast 449 517 30,700 -2,100 Descending Fort Worth Center
12:35PM 34.0606 -98.6819 119° Southeast 475 547 28,600 -2,100 Descending Fort Worth Center
12:36PM 33.9950 -98.5458 120° Southeast 486 559 26,600 -1,980 Descending Fort Worth Center
12:37PM 33.9272 -98.4147 122° Southeast 480 552 24,700 -1,800 Descending Fort Worth Center
12:38PM 33.8697 -98.3014 121° Southeast 452 520 23,100 -1,800 Descending Fort Worth Center
12:39PM 33.8017 -98.1658 121° Southeast 430 495 21,100 -1,860 Descending Fort Worth Center
12:40PM 33.7419 -98.0456 121° Southeast 430 495 19,400 -1,740 Descending Fort Worth Center
12:41PM 33.6819 -97.9253 121° Southeast 424 488 17,700 -1,680 Descending Fort Worth Center
12:42PM 33.6300 -97.8200 121° Southeast 419 482 16,100 -1,620 Descending Fort Worth Center
12:43PM 33.5739 -97.7100 121° Southeast 398 458 14,500 -1,620 Descending Fort Worth Center
12:44PM 33.5117 -97.5928 122° Southeast 391 450 12,900 -1,620 Descending Fort Worth Center
12:45PM 33.4594 -97.4881 121° Southeast 379 436 11,300 -1,560 Descending Fort Worth Center
12:46PM 33.3969 -97.4136 135° Southeast 336 387 9,800 -1,740 Descending Fort Worth Center
12:46PM 33.3667 -97.3667 128° Southeast 274 315 8,600 -1,980 Descending Dallas / Fort Worth TRACON
12:47PM 33.3667 -97.2667 90° East 279 321 6,500 -1,800 Descending Dallas / Fort Worth TRACON
12:48PM 33.3667 -97.1833 90° East 273 314 5,100 -1,320 Descending Dallas / Fort Worth TRACON
12:49PM 33.3500 -97.1000 103° East 277 319 4,100 -540 Descending Dallas / Fort Worth TRACON
12:50PM 33.3500 -97.0000 90° East 284 327 4,000 -60 Descending Dallas / Fort Worth TRACON
12:51PM 33.3167 -96.9000 112° Southeast 273 314 4,000  Level Dallas / Fort Worth TRACON
12:52PM 33.2667 -96.8500 140° Southeast 258 297 4,000  Level Dallas / Fort Worth TRACON
12:53PM 33.2000 -96.8333 168° South 266 306 4,000  Level Dallas / Fort Worth TRACON
12:54PM 33.1167 -96.8333 180° South 259 298 4,000 -480 Level Dallas / Fort Worth TRACON
12:55PM 33.0667 -96.8333 180° South 250 288 3,100 -900 Descending Dallas / Fort Worth TRACON
12:56PM 33.0000 -96.8667 203° Southwest 229 264 2,300 -540 Descending Dallas / Fort Worth TRACON
12:57PM 32.9333 -96.8667 180° South 197 227 2,000 -420 Descending Dallas / Fort Worth TRACON
12:58PM 32.8833 -96.8667 180° South 170 196 1,500 -540 Descending Dallas / Fort Worth TRACON
01:00PM 32.8471 -96.8518 180° South  Level Estimated
01:07PM 32.8471 -96.8518 180° South  Level Estimated